createdAt,value
2023-02-28T00:01:28.128Z,23.20
2023-02-28T00:03:55.567Z,20.75
2023-02-28T00:06:22.918Z,19.98
2023-02-28T00:08:51.849Z,21.20
2023-02-28T00:11:19.353Z,20.83
2023-02-28T00:13:47.937Z,17.88
2023-02-28T00:16:17.042Z,16.92
2023-02-28T00:18:45.835Z,16.67
2023-02-28T00:21:15.047Z,16.35
2023-02-28T00:23:42.558Z,18.75
2023-02-28T00:26:09.893Z,19.27
2023-02-28T00:28:38.347Z,19.73
2023-02-28T00:31:06.154Z,19.15
2023-02-28T00:33:35.514Z,18.25
2023-02-28T00:36:11.052Z,20.45
2023-02-28T00:38:39.756Z,18.67
2023-02-28T00:41:08.131Z,20.00
2023-02-28T00:43:38.917Z,19.80
2023-02-28T00:46:06.738Z,18.15
2023-02-28T00:48:34.316Z,17.00
2023-02-28T00:51:02.036Z,15.60
2023-02-28T00:53:29.578Z,16.38
2023-02-28T00:55:57.448Z,15.82
2023-02-28T00:58:24.664Z,15.40
2023-02-28T01:00:52.886Z,15.82
2023-02-28T01:03:20.703Z,15.48
2023-02-28T01:05:48.552Z,16.92
2023-02-28T01:08:17.275Z,19.88
2023-02-28T01:10:45.159Z,20.75
2023-02-28T01:13:13.118Z,18.65
2023-02-28T01:15:42.792Z,18.48
2023-02-28T01:18:10.275Z,18.03
2023-02-28T01:20:41.428Z,19.90
2023-02-28T01:23:08.837Z,21.17
2023-02-28T01:25:37.808Z,19.67
2023-02-28T01:28:05.483Z,20.27
2023-02-28T01:30:33.290Z,20.10
2023-02-28T01:33:00.549Z,19.10
2023-02-28T01:35:29.347Z,20.95
2023-02-28T01:38:01.000Z,18.48
2023-02-28T01:40:32.413Z,15.52
2023-02-28T01:43:00.036Z,15.60
2023-02-28T01:45:31.207Z,15.95
2023-02-28T01:48:06.113Z,17.67
2023-02-28T01:50:36.846Z,16.25
2023-02-28T01:55:32.331Z,14.48
2023-02-28T01:58:03.228Z,14.40
2023-02-28T02:00:35.235Z,12.98
2023-02-28T02:03:10.624Z,14.00
2023-02-28T02:05:38.878Z,13.32
2023-02-28T02:08:07.565Z,14.18
2023-02-28T02:10:42.805Z,13.57
2023-02-28T02:13:36.082Z,14.63
2023-02-28T02:16:18.743Z,13.65
2023-02-28T02:18:51.673Z,13.50
2023-02-28T02:21:22.052Z,13.20
2023-02-28T02:24:05.209Z,14.10
2023-02-28T02:26:52.121Z,14.43
2023-02-28T02:29:22.274Z,14.18
2023-02-28T02:31:53.405Z,13.23
2023-02-28T02:34:33.901Z,13.77
2023-02-28T02:37:07.229Z,14.95
2023-02-28T02:39:54.754Z,13.82
2023-02-28T02:42:26.106Z,14.05
2023-02-28T02:44:57.318Z,12.32
2023-02-28T02:47:26.229Z,14.93
2023-02-28T02:49:57.460Z,13.63
2023-02-28T02:52:26.686Z,14.05
2023-02-28T02:54:56.706Z,14.07
2023-02-28T02:57:56.922Z,15.20
2023-02-28T03:00:26.901Z,14.00
2023-02-28T03:02:55.038Z,14.77
2023-02-28T03:05:25.703Z,14.05
2023-02-28T03:10:43.915Z,15.55
2023-02-28T03:15:45.745Z,15.35
2023-02-28T03:18:19.938Z,15.80
2023-02-28T03:21:18.482Z,15.50
2023-02-28T03:24:07.337Z,15.70
2023-02-28T03:26:36.780Z,16.70
2023-02-28T03:29:06.446Z,16.75
2023-02-28T03:32:00.624Z,16.77
2023-02-28T03:34:31.494Z,16.80
2023-02-28T03:37:05.040Z,17.48
2023-02-28T03:39:39.126Z,17.20
2023-02-28T03:42:12.205Z,18.50
2023-02-28T03:44:39.434Z,18.33
2023-02-28T03:47:10.642Z,19.98
2023-02-28T03:49:44.636Z,20.15
2023-02-28T03:52:12.006Z,19.88
2023-02-28T03:54:44.704Z,18.50
2023-02-28T03:57:26.788Z,18.35
2023-02-28T04:00:20.467Z,18.67
2023-02-28T04:02:53.581Z,18.80
2023-02-28T04:05:24.571Z,19.48
2023-02-28T04:07:52.080Z,19.08
2023-02-28T04:10:19.716Z,18.88
2023-02-28T04:12:46.898Z,23.40
2023-02-28T04:15:14.517Z,19.67
2023-02-28T04:17:41.879Z,19.85
2023-02-28T04:20:13.636Z,22.50
2023-02-28T04:22:41.030Z,22.67
2023-02-28T04:25:08.553Z,22.05
2023-02-28T04:27:36.372Z,22.70
2023-02-28T04:30:03.519Z,22.02
2023-02-28T04:32:30.862Z,20.77
2023-02-28T04:35:02.130Z,19.70
2023-02-28T04:37:30.189Z,20.08
2023-02-28T04:39:59.022Z,19.15
2023-02-28T04:42:26.157Z,18.17
2023-02-28T04:44:54.979Z,20.35
2023-02-28T04:47:22.384Z,18.25
2023-02-28T04:49:49.801Z,20.27
2023-02-28T04:52:17.030Z,21.83
2023-02-28T04:54:44.128Z,22.67
2023-02-28T04:57:11.431Z,22.20
2023-02-28T04:59:38.726Z,21.00
2023-02-28T05:02:08.351Z,22.48
2023-02-28T05:04:38.020Z,20.77
2023-02-28T05:07:05.292Z,19.33
2023-02-28T05:09:33.925Z,19.02
2023-02-28T05:12:01.059Z,18.55
2023-02-28T05:14:28.181Z,18.90
2023-02-28T05:16:55.767Z,16.90
2023-02-28T05:19:22.884Z,17.65
2023-02-28T05:21:52.274Z,18.40
2023-02-28T05:24:28.569Z,18.52
2023-02-28T05:26:57.145Z,20.67
2023-02-28T05:29:24.415Z,24.00
2023-02-28T05:31:51.955Z,18.88
2023-02-28T05:34:21.304Z,22.88
2023-02-28T05:36:48.550Z,22.45
2023-02-28T05:39:15.894Z,23.58
2023-02-28T05:41:43.971Z,21.27
2023-02-28T05:44:11.607Z,19.48
2023-02-28T05:46:39.616Z,19.17
2023-02-28T05:49:07.231Z,19.20
2023-02-28T05:51:37.326Z,20.80
2023-02-28T05:54:05.156Z,21.58
2023-02-28T05:56:33.356Z,21.77
2023-02-28T05:59:00.500Z,22.73
2023-02-28T06:01:35.478Z,33.92
2023-02-28T06:04:03.204Z,34.60
2023-02-28T06:06:30.688Z,29.83
2023-02-28T06:08:58.227Z,31.83
2023-02-28T06:11:28.679Z,29.73
2023-02-28T06:13:57.513Z,25.83
2023-02-28T06:16:25.569Z,25.70
2023-02-28T06:18:53.703Z,26.45
2023-02-28T06:21:20.865Z,26.40
2023-02-28T06:23:48.102Z,27.33
2023-02-28T06:26:15.477Z,29.15
2023-02-28T06:28:42.627Z,29.05
2023-02-28T06:31:14.295Z,29.38
2023-02-28T06:33:42.494Z,30.45
2023-02-28T06:36:10.412Z,31.27
2023-02-28T06:38:38.316Z,30.40
2023-02-28T06:41:05.938Z,25.13
2023-02-28T06:43:36.594Z,25.95
2023-02-28T06:48:33.044Z,26.35
2023-02-28T06:51:15.743Z,22.73
2023-02-28T06:53:43.216Z,21.23
2023-02-28T06:56:11.785Z,20.80
2023-02-28T06:58:42.240Z,21.10
2023-02-28T07:01:13.321Z,20.08
2023-02-28T07:03:40.702Z,21.58
2023-02-28T07:06:07.946Z,19.52
2023-02-28T07:08:36.818Z,18.15
2023-02-28T07:11:04.593Z,19.17
2023-02-28T07:13:31.814Z,18.65
2023-02-28T07:16:00.490Z,18.52
2023-02-28T07:18:27.867Z,17.67
2023-02-28T07:20:55.264Z,17.33
2023-02-28T07:23:22.631Z,17.25
2023-02-28T07:25:50.584Z,18.48
2023-02-28T07:28:17.810Z,18.60
2023-02-28T07:30:45.111Z,17.73
2023-02-28T07:33:12.269Z,15.57
2023-02-28T07:35:39.493Z,15.15
2023-02-28T07:38:08.420Z,15.15
2023-02-28T07:40:36.481Z,15.85
2023-02-28T07:43:04.475Z,11.20
2023-02-28T07:45:32.801Z,12.02
2023-02-28T07:47:59.979Z,11.20
2023-02-28T07:50:28.666Z,11.15
2023-02-28T07:52:55.942Z,10.70
2023-02-28T07:55:23.282Z,11.98
2023-02-28T07:57:50.553Z,12.73
2023-02-28T08:00:17.868Z,12.63
2023-02-28T08:02:45.412Z,12.55
2023-02-28T08:05:12.580Z,12.20
2023-02-28T08:07:40.391Z,12.65
2023-02-28T08:10:07.834Z,13.85
2023-02-28T08:12:35.025Z,13.35
2023-02-28T08:15:02.278Z,12.50
2023-02-28T08:17:29.436Z,12.70
2023-02-28T08:19:56.733Z,13.80
2023-02-28T08:22:23.883Z,14.88
2023-02-28T08:24:51.148Z,13.80
2023-02-28T08:27:18.462Z,14.13
2023-02-28T08:29:45.638Z,11.05
2023-02-28T08:32:28.538Z,8.50
2023-02-28T08:34:56.922Z,8.57
2023-02-28T08:37:24.336Z,9.57
2023-02-28T08:39:52.819Z,8.98
2023-02-28T08:42:22.039Z,8.05
2023-02-28T08:44:49.254Z,9.70
2023-02-28T08:47:19.036Z,9.93
2023-02-28T08:49:46.214Z,9.10
2023-02-28T08:52:13.472Z,9.85
2023-02-28T08:54:40.783Z,9.75
2023-02-28T08:57:08.215Z,10.40
2023-02-28T08:59:35.381Z,9.90
2023-02-28T09:02:02.544Z,9.95
2023-02-28T09:04:31.966Z,10.35
2023-02-28T09:06:59.184Z,9.82
2023-02-28T09:09:26.364Z,9.52
2023-02-28T09:11:53.658Z,10.23
2023-02-28T09:14:20.878Z,10.02
2023-02-28T09:16:48.105Z,9.82
2023-02-28T09:19:15.692Z,9.63
2023-02-28T09:21:42.847Z,9.88
2023-02-28T09:24:10.049Z,9.65
2023-02-28T09:26:43.052Z,10.85
2023-02-28T09:29:15.510Z,11.38
2023-02-28T09:31:42.787Z,10.90
2023-02-28T09:34:10.270Z,9.57
2023-02-28T09:36:46.062Z,10.60
2023-02-28T09:39:16.243Z,8.90
2023-02-28T09:41:51.192Z,9.45
2023-02-28T09:44:21.871Z,8.88
2023-02-28T09:46:51.687Z,10.00
2023-02-28T09:49:21.313Z,8.85
2023-02-28T09:51:55.014Z,10.00
2023-02-28T09:54:26.731Z,10.77
2023-02-28T09:57:04.596Z,10.43
2023-02-28T09:59:40.749Z,13.38
2023-02-28T10:02:23.034Z,12.82
2023-02-28T10:04:55.428Z,12.65
2023-02-28T10:07:27.872Z,11.05
2023-02-28T10:09:57.204Z,10.70
2023-02-28T10:12:26.641Z,11.23
2023-02-28T10:14:54.688Z,11.40
2023-02-28T10:17:23.757Z,11.95
2023-02-28T10:19:50.902Z,11.35
2023-02-28T10:22:18.158Z,9.80
2023-02-28T10:24:47.192Z,9.07
2023-02-28T10:27:17.122Z,9.85
2023-02-28T10:29:45.359Z,9.60
2023-02-28T10:32:14.885Z,9.43
2023-02-28T10:34:42.194Z,11.30
2023-02-28T10:37:09.332Z,10.55
2023-02-28T10:39:37.433Z,10.32
2023-02-28T10:42:05.105Z,11.52
2023-02-28T10:44:32.294Z,10.57
2023-02-28T10:46:59.750Z,10.27
2023-02-28T10:49:30.313Z,9.90
2023-02-28T10:51:59.026Z,11.07
2023-02-28T10:54:29.397Z,10.40
2023-02-28T10:57:15.458Z,9.73
2023-02-28T10:59:42.750Z,10.02
2023-02-28T11:02:28.563Z,9.85
2023-02-28T11:04:57.020Z,9.65
2023-02-28T11:07:27.633Z,9.18
2023-02-28T11:09:56.398Z,8.90
2023-02-28T11:12:52.240Z,21.90
2023-02-28T11:15:32.323Z,9.68
2023-02-28T11:18:01.549Z,8.60
2023-02-28T11:20:31.418Z,7.90
2023-02-28T11:23:00.159Z,8.77
2023-02-28T11:25:28.996Z,8.50
2023-02-28T11:27:57.986Z,9.00
2023-02-28T11:30:34.997Z,9.02
2023-02-28T11:33:03.215Z,9.00
2023-02-28T11:35:35.562Z,9.43
2023-02-28T11:38:02.870Z,9.50
2023-02-28T11:40:32.948Z,8.63
2023-02-28T11:43:20.970Z,8.60
2023-02-28T11:46:07.221Z,8.18
2023-02-28T11:48:52.850Z,8.95
2023-02-28T11:51:19.983Z,9.30
2023-02-28T11:53:56.223Z,10.52
2023-02-28T11:56:34.013Z,8.68
2023-02-28T11:59:09.596Z,9.13
2023-02-28T12:01:36.748Z,9.32
2023-02-28T12:04:39.458Z,9.23
2023-02-28T12:07:21.288Z,10.07
2023-02-28T12:10:04.291Z,9.48
2023-02-28T12:12:54.855Z,9.55
2023-02-28T12:15:30.357Z,9.27
2023-02-28T12:18:11.697Z,9.73
2023-02-28T12:20:42.162Z,9.52
2023-02-28T12:23:11.367Z,10.75
2023-02-28T12:25:38.579Z,9.45
2023-02-28T12:28:06.556Z,9.13
2023-02-28T12:30:35.914Z,8.95
2023-02-28T12:33:10.491Z,9.88
2023-02-28T12:35:42.825Z,8.60
2023-02-28T12:38:23.476Z,8.50
2023-02-28T12:43:19.163Z,9.07
2023-02-28T12:46:00.544Z,7.90
2023-02-28T12:48:32.550Z,8.90
2023-02-28T12:51:03.411Z,8.50
2023-02-28T12:53:30.805Z,8.25
2023-02-28T12:56:16.861Z,8.63
2023-02-28T12:58:48.905Z,9.48
2023-02-28T13:01:33.041Z,8.77
2023-02-28T13:04:19.072Z,10.50
2023-02-28T13:06:58.812Z,8.38
2023-02-28T13:09:26.786Z,10.60
2023-02-28T13:11:55.192Z,8.73
2023-02-28T13:14:22.408Z,8.82
2023-02-28T13:17:00.998Z,7.70
2023-02-28T13:19:30.354Z,8.38
2023-02-28T13:21:58.830Z,6.97
2023-02-28T13:24:38.550Z,7.88
2023-02-28T13:27:25.664Z,8.70
2023-02-28T13:29:56.028Z,8.60
2023-02-28T13:32:34.269Z,8.60
2023-02-28T13:35:01.457Z,7.90
2023-02-28T13:37:31.572Z,8.65
2023-02-28T13:40:03.839Z,8.55
2023-02-28T13:42:38.448Z,8.57
2023-02-28T13:45:05.784Z,9.18
2023-02-28T13:47:47.989Z,8.73
2023-02-28T13:50:18.729Z,8.85
2023-02-28T13:52:49.798Z,9.57
2023-02-28T13:55:26.725Z,8.60
2023-02-28T13:58:03.825Z,8.55
2023-02-28T14:00:36.741Z,9.50
2023-02-28T14:03:20.213Z,8.70
2023-02-28T14:05:47.518Z,7.95
2023-02-28T14:08:18.619Z,9.55
2023-02-28T14:10:47.781Z,8.82
2023-02-28T14:13:27.093Z,10.65
2023-02-28T14:15:59.429Z,8.82
2023-02-28T14:18:28.889Z,8.68
2023-02-28T14:20:59.110Z,8.88
2023-02-28T14:23:46.173Z,9.07
2023-02-28T14:26:24.668Z,9.90
2023-02-28T14:28:54.980Z,9.25
2023-02-28T14:31:31.444Z,8.38
2023-02-28T14:34:05.916Z,8.98
2023-02-28T14:36:36.163Z,10.25
2023-02-28T14:39:09.458Z,9.30
2023-02-28T14:44:23.904Z,8.38
2023-02-28T14:46:52.453Z,10.40
2023-02-28T14:49:33.320Z,10.48
2023-02-28T14:52:10.749Z,12.82
2023-02-28T14:54:39.156Z,13.63
2023-02-28T14:57:06.799Z,10.02
2023-02-28T14:59:35.746Z,9.30
2023-02-28T15:02:25.185Z,11.85
2023-02-28T15:04:59.672Z,11.00
2023-02-28T15:07:30.128Z,9.32
2023-02-28T15:10:15.949Z,9.45
2023-02-28T15:12:44.571Z,8.70
2023-02-28T15:15:18.547Z,8.65
2023-02-28T15:17:52.085Z,10.10
2023-02-28T15:20:19.993Z,8.77
2023-02-28T15:22:48.770Z,9.40
2023-02-28T15:25:18.821Z,13.80
2023-02-28T15:27:48.599Z,12.57
2023-02-28T15:30:18.344Z,13.75
2023-02-28T15:32:46.659Z,11.13
2023-02-28T15:35:26.332Z,12.07
2023-02-28T15:37:53.693Z,11.50
2023-02-28T15:40:26.022Z,10.25
2023-02-28T15:43:06.168Z,9.38
2023-02-28T15:45:43.156Z,8.48
2023-02-28T15:48:21.186Z,12.88
2023-02-28T15:50:49.544Z,15.35
2023-02-28T15:53:23.060Z,16.52
2023-02-28T15:55:54.674Z,21.75
2023-02-28T15:58:23.399Z,34.95
2023-02-28T16:01:02.173Z,37.47
2023-02-28T16:03:36.064Z,34.33
2023-02-28T16:06:23.701Z,28.67
2023-02-28T16:08:52.438Z,23.55
2023-02-28T16:11:20.769Z,19.90
2023-02-28T16:13:48.269Z,19.73
2023-02-28T16:16:24.192Z,20.42
2023-02-28T16:18:52.169Z,21.75
2023-02-28T16:21:19.377Z,25.95
2023-02-28T16:23:46.648Z,25.58
2023-02-28T16:26:20.803Z,23.50
2023-02-28T16:28:48.568Z,22.10
2023-02-28T16:31:17.444Z,21.88
2023-02-28T16:33:46.189Z,21.27
2023-02-28T16:36:28.680Z,21.77
2023-02-28T16:38:56.302Z,19.83
2023-02-28T16:41:26.262Z,19.45
2023-02-28T16:43:55.500Z,18.70
2023-02-28T16:46:22.882Z,16.83
2023-02-28T16:48:52.432Z,19.10
2023-02-28T16:51:20.311Z,22.75
2023-02-28T16:53:47.743Z,21.45
2023-02-28T16:56:18.395Z,20.35
2023-02-28T17:01:13.055Z,21.92
2023-02-28T17:03:43.141Z,23.13
2023-02-28T17:06:23.335Z,26.10
2023-02-28T17:08:51.142Z,27.38
2023-02-28T17:11:18.937Z,26.23
2023-02-28T17:13:46.683Z,28.88
2023-02-28T17:16:43.352Z,26.50
2023-02-28T17:19:14.838Z,30.42
2023-02-28T17:21:43.082Z,32.13
2023-02-28T17:24:16.636Z,35.22
2023-02-28T17:26:46.719Z,38.05
2023-02-28T17:29:16.542Z,41.30
2023-02-28T17:31:43.853Z,40.90
2023-02-28T17:34:11.751Z,40.60
2023-02-28T17:36:39.275Z,40.55
2023-02-28T17:39:11.169Z,37.67
2023-02-28T17:41:38.517Z,41.25
2023-02-28T17:44:07.462Z,42.28
2023-02-28T17:46:35.906Z,40.17
2023-02-28T17:49:03.174Z,41.53
2023-02-28T17:51:30.532Z,41.60
2023-02-28T17:53:57.742Z,44.17
2023-02-28T17:56:29.538Z,44.25
2023-02-28T17:58:57.650Z,46.28
2023-02-28T18:01:29.183Z,48.38
2023-02-28T18:03:56.882Z,49.42
2023-02-28T18:06:25.961Z,50.45
2023-02-28T18:08:53.494Z,55.38
2023-02-28T18:11:21.565Z,59.97
2023-02-28T18:13:51.192Z,59.60
2023-02-28T18:16:18.964Z,56.75
2023-02-28T18:18:46.529Z,56.05
2023-02-28T18:21:15.181Z,61.30
2023-02-28T18:23:48.184Z,59.53
2023-02-28T18:26:16.027Z,60.38
2023-02-28T18:28:44.731Z,59.42
2023-02-28T18:31:13.649Z,56.95
2023-02-28T18:33:40.991Z,55.35
2023-02-28T18:36:08.478Z,53.95
2023-02-28T18:38:35.823Z,54.63
2023-02-28T18:41:04.542Z,57.28
2023-02-28T18:43:34.081Z,53.85
2023-02-28T18:46:05.688Z,54.78
2023-02-28T18:48:33.555Z,54.72
2023-02-28T18:51:07.646Z,55.67
2023-02-28T18:53:35.796Z,58.35
2023-02-28T18:56:06.605Z,58.67
2023-02-28T18:58:34.216Z,58.03
2023-02-28T19:01:02.587Z,58.13
2023-02-28T19:03:29.877Z,56.92
2023-02-28T19:06:01.275Z,59.47
2023-02-28T19:08:28.493Z,63.08
2023-02-28T19:10:55.562Z,66.45
2023-02-28T19:13:22.881Z,71.88
2023-02-28T19:15:51.813Z,75.43
2023-02-28T19:18:21.105Z,85.72
2023-02-28T19:20:48.463Z,94.38
2023-02-28T19:23:15.827Z,104.80
2023-02-28T19:25:43.268Z,122.97
2023-02-28T19:28:11.323Z,129.30
2023-02-28T19:30:38.699Z,139.65
2023-02-28T19:33:05.969Z,141.68
2023-02-28T19:35:35.678Z,148.27
2023-02-28T19:38:02.947Z,148.60
2023-02-28T19:40:35.601Z,143.48
2023-02-28T19:46:40.552Z,126.03
2023-02-28T19:49:08.997Z,114.57
2023-02-28T19:51:50.088Z,112.43
2023-02-28T19:54:17.613Z,106.57
2023-02-28T19:56:46.553Z,102.50
2023-02-28T19:59:21.228Z,97.68
2023-02-28T20:01:49.680Z,91.78
2023-02-28T20:04:17.031Z,92.45
2023-02-28T20:06:44.264Z,91.07
2023-02-28T20:09:11.456Z,88.03
2023-02-28T20:11:39.378Z,87.57
2023-02-28T20:14:06.528Z,83.40
2023-02-28T20:16:33.783Z,79.18
2023-02-28T20:19:01.238Z,75.75
2023-02-28T20:21:28.419Z,77.80
2023-02-28T20:23:55.635Z,72.97
2023-02-28T20:26:22.984Z,74.13
2023-02-28T20:28:50.671Z,71.03
2023-02-28T20:31:19.628Z,72.63
2023-02-28T20:33:47.568Z,74.03
2023-02-28T20:36:15.927Z,77.22
2023-02-28T20:38:43.914Z,75.10
2023-02-28T20:41:12.121Z,70.72
2023-02-28T20:43:40.362Z,74.15
2023-02-28T20:46:07.685Z,71.88
2023-02-28T20:48:38.357Z,73.65
2023-02-28T20:51:06.074Z,73.63
2023-02-28T20:53:34.137Z,73.55
2023-02-28T20:56:02.547Z,75.18
2023-02-28T20:58:31.046Z,74.50
2023-02-28T21:01:04.605Z,76.68
2023-02-28T21:03:32.071Z,71.47
2023-02-28T21:06:03.226Z,79.68
2023-02-28T21:08:30.738Z,81.10
2023-02-28T21:11:00.057Z,82.90
2023-02-28T21:13:27.318Z,83.80
2023-02-28T21:15:54.925Z,87.55
2023-02-28T21:18:22.371Z,85.40
2023-02-28T21:20:51.065Z,85.45
2023-02-28T21:23:18.470Z,87.03
2023-02-28T21:25:45.786Z,85.35
2023-02-28T21:28:13.218Z,82.90
2023-02-28T21:30:40.508Z,85.28
2023-02-28T21:33:08.153Z,84.75
2023-02-28T21:35:35.309Z,86.70
2023-02-28T21:38:02.450Z,87.25
2023-02-28T21:40:29.658Z,89.05
2023-02-28T21:42:57.012Z,95.15
2023-02-28T21:45:24.241Z,101.93
2023-02-28T21:47:51.337Z,105.00
2023-02-28T21:50:18.545Z,98.85
2023-02-28T21:52:47.505Z,101.72
2023-02-28T21:55:15.713Z,103.75
2023-02-28T21:57:46.026Z,112.97
2023-02-28T22:02:42.804Z,104.38
2023-02-28T22:05:10.115Z,112.93
2023-02-28T22:07:42.461Z,111.22
2023-02-28T22:10:11.390Z,110.00
2023-02-28T22:12:39.085Z,106.32
2023-02-28T22:15:06.535Z,110.53
2023-02-28T22:17:34.370Z,114.50
2023-02-28T22:20:01.717Z,113.05
2023-02-28T22:22:31.041Z,113.93
2023-02-28T22:24:58.353Z,111.45
2023-02-28T22:27:25.612Z,106.93
2023-02-28T22:29:57.873Z,115.15
2023-02-28T22:32:25.198Z,121.03
2023-02-28T22:34:52.652Z,123.15
2023-02-28T22:37:19.809Z,125.53
2023-02-28T22:39:47.663Z,135.00
2023-02-28T22:42:14.793Z,138.90
2023-02-28T22:44:43.288Z,126.57
2023-02-28T22:47:10.468Z,129.23
2023-02-28T22:49:37.911Z,139.18
2023-02-28T22:52:05.301Z,135.07
2023-02-28T22:54:32.405Z,138.63
2023-02-28T22:56:59.608Z,138.10
2023-02-28T22:59:26.970Z,134.57
2023-02-28T23:01:54.159Z,141.98
2023-02-28T23:04:25.690Z,143.93
2023-02-28T23:06:52.947Z,142.98
2023-02-28T23:09:23.334Z,137.95
2023-02-28T23:11:51.990Z,138.85
2023-02-28T23:14:19.685Z,143.35
2023-02-28T23:16:50.967Z,142.55
2023-02-28T23:19:20.007Z,140.77
2023-02-28T23:21:47.612Z,136.57
2023-02-28T23:24:15.761Z,140.35
2023-02-28T23:26:44.676Z,140.65
2023-02-28T23:29:12.913Z,140.98
2023-02-28T23:31:40.292Z,136.85
2023-02-28T23:34:07.861Z,132.25
2023-02-28T23:36:35.013Z,125.75
2023-02-28T23:39:04.199Z,124.30
2023-02-28T23:41:32.808Z,116.93
2023-02-28T23:44:00.150Z,109.03
2023-02-28T23:46:27.284Z,108.55
2023-02-28T23:48:54.438Z,100.60
2023-02-28T23:51:22.701Z,100.10
2023-02-28T23:53:51.136Z,106.63
2023-02-28T23:56:19.570Z,100.10
2023-02-28T23:58:50.157Z,105.30
